createdAt,value
2023-04-16T00:00:27.533Z,0.00
2023-04-16T00:01:27.578Z,0.00
2023-04-16T00:02:27.670Z,0.00
2023-04-16T00:03:27.746Z,0.00
2023-04-16T00:04:27.596Z,0.00
2023-04-16T00:05:27.517Z,0.00
2023-04-16T00:06:27.462Z,0.00
2023-04-16T00:07:27.511Z,0.00
2023-04-16T00:08:27.484Z,0.00
2023-04-16T00:09:28.446Z,0.00
2023-04-16T00:10:27.419Z,0.00
2023-04-16T00:11:27.450Z,0.00
2023-04-16T00:12:27.450Z,0.00
2023-04-16T00:13:27.393Z,0.00
2023-04-16T00:14:27.473Z,0.00
2023-04-16T00:15:27.384Z,0.00
2023-04-16T00:16:27.404Z,0.00
2023-04-16T00:17:27.451Z,0.00
2023-04-16T00:18:27.345Z,0.00
2023-04-16T00:19:27.319Z,0.00
2023-04-16T00:20:27.352Z,0.00
2023-04-16T00:21:27.320Z,0.00
2023-04-16T00:22:28.288Z,0.00
2023-04-16T00:23:27.315Z,0.00
2023-04-16T00:24:27.278Z,0.00
2023-04-16T00:25:27.251Z,0.00
2023-04-16T00:26:27.241Z,0.00
2023-04-16T00:27:27.251Z,0.00
2023-04-16T00:28:27.228Z,0.00
2023-04-16T00:29:27.211Z,0.00
2023-04-16T00:30:27.222Z,0.00
2023-04-16T00:31:27.262Z,0.00
2023-04-16T00:32:27.240Z,0.00
2023-04-16T00:33:27.174Z,0.00
2023-04-16T00:34:27.186Z,0.00
2023-04-16T00:35:27.153Z,0.00
2023-04-16T00:36:27.139Z,0.00
2023-04-16T00:37:27.147Z,0.00
2023-04-16T00:38:27.124Z,0.00
2023-04-16T00:39:27.125Z,0.00
2023-04-16T00:40:27.093Z,0.00
2023-04-16T00:41:27.081Z,0.00
2023-04-16T00:42:27.058Z,0.00
2023-04-16T00:43:27.101Z,0.00
2023-04-16T00:44:27.063Z,0.00
2023-04-16T00:45:27.040Z,0.00
2023-04-16T00:46:27.087Z,0.00
2023-04-16T00:47:27.064Z,0.00
2023-04-16T00:48:26.996Z,0.00
2023-04-16T00:49:27.014Z,0.00
2023-04-16T00:50:26.989Z,0.00
2023-04-16T00:51:27.007Z,0.00
2023-04-16T00:52:27.920Z,0.00
2023-04-16T00:53:26.950Z,0.00
2023-04-16T00:54:26.933Z,0.00
2023-04-16T00:55:26.937Z,0.00
2023-04-16T00:56:26.946Z,0.00
2023-04-16T00:57:26.900Z,0.00
2023-04-16T00:58:26.901Z,0.00
2023-04-16T00:59:26.881Z,0.00
2023-04-16T01:00:26.864Z,0.00
2023-04-16T01:01:27.874Z,0.00
2023-04-16T01:02:26.983Z,0.00
2023-04-16T01:03:27.053Z,0.00
2023-04-16T01:04:26.893Z,0.00
2023-04-16T01:05:26.814Z,0.00
2023-04-16T01:06:26.808Z,0.00
2023-04-16T01:07:26.791Z,0.00
2023-04-16T01:08:27.250Z,0.00
2023-04-16T01:09:26.776Z,0.00
2023-04-16T01:10:26.766Z,0.00
2023-04-16T01:11:26.746Z,0.00
2023-04-16T01:12:26.748Z,0.00
2023-04-16T01:13:26.754Z,0.00
2023-04-16T01:14:26.702Z,0.00
2023-04-16T01:15:26.707Z,0.00
2023-04-16T01:16:27.757Z,0.00
2023-04-16T01:17:26.745Z,0.00
2023-04-16T01:18:26.668Z,0.00
2023-04-16T01:19:26.667Z,0.00
2023-04-16T01:20:26.657Z,0.00
2023-04-16T01:21:26.633Z,0.00
2023-04-16T01:22:26.615Z,0.00
2023-04-16T01:23:26.621Z,0.00
2023-04-16T01:24:26.617Z,0.00
2023-04-16T01:25:26.617Z,0.00
2023-04-16T01:26:26.571Z,0.00
2023-04-16T01:27:26.568Z,0.00
2023-04-16T01:28:26.556Z,0.00
2023-04-16T01:29:26.590Z,0.00
2023-04-16T01:30:26.556Z,0.00
2023-04-16T01:31:26.579Z,0.00
2023-04-16T01:32:27.359Z,0.00
2023-04-16T01:33:26.506Z,0.00
2023-04-16T01:34:26.501Z,0.00
2023-04-16T01:35:27.485Z,0.00
2023-04-16T01:36:26.459Z,0.00
2023-04-16T01:37:28.006Z,0.00
2023-04-16T01:38:26.454Z,0.00
2023-04-16T01:39:26.451Z,0.00
2023-04-16T01:40:27.879Z,0.00
2023-04-16T01:41:31.295Z,0.00
2023-04-16T01:42:26.420Z,0.00
2023-04-16T01:43:26.447Z,0.00
2023-04-16T01:44:26.675Z,0.00
2023-04-16T01:45:26.373Z,0.00
2023-04-16T01:46:27.367Z,0.00
2023-04-16T01:47:26.476Z,0.00
2023-04-16T01:48:26.337Z,0.00
2023-04-16T01:49:26.351Z,0.00
2023-04-16T01:50:26.381Z,0.00
2023-04-16T01:51:26.324Z,0.00
2023-04-16T01:52:26.300Z,0.00
2023-04-16T01:53:26.306Z,0.00
2023-04-16T01:54:26.292Z,0.00
2023-04-16T01:55:26.258Z,0.00
2023-04-16T01:56:27.235Z,0.00
2023-04-16T01:57:26.248Z,0.00
2023-04-16T01:58:27.222Z,0.00
2023-04-16T01:59:26.244Z,0.00
2023-04-16T02:00:26.227Z,0.00
2023-04-16T02:01:26.316Z,0.00
2023-04-16T02:02:26.776Z,0.00
2023-04-16T02:03:27.346Z,0.00
2023-04-16T02:04:26.202Z,0.00
2023-04-16T02:05:26.178Z,0.00
2023-04-16T02:06:26.603Z,0.00
2023-04-16T02:07:26.147Z,0.00
2023-04-16T02:08:27.072Z,0.00
2023-04-16T02:09:26.131Z,0.00
2023-04-16T02:10:26.164Z,0.00
2023-04-16T02:11:26.572Z,0.00
2023-04-16T02:12:26.078Z,0.00
2023-04-16T02:13:27.162Z,0.00
2023-04-16T02:14:27.020Z,0.00
2023-04-16T02:15:26.044Z,0.00
2023-04-16T02:16:26.322Z,0.00
2023-04-16T02:17:26.071Z,0.00
2023-04-16T02:18:26.015Z,0.00
2023-04-16T02:19:26.019Z,0.00
2023-04-16T02:20:26.990Z,0.00
2023-04-16T02:21:25.991Z,0.00
2023-04-16T02:22:27.413Z,0.00
2023-04-16T02:23:25.954Z,0.00
2023-04-16T02:24:26.202Z,0.00
2023-04-16T02:25:26.391Z,0.00
2023-04-16T02:26:27.811Z,0.00
2023-04-16T02:27:25.933Z,0.00
2023-04-16T02:28:25.902Z,0.00
2023-04-16T02:29:25.875Z,0.00
2023-04-16T02:30:26.013Z,0.00
2023-04-16T02:31:25.896Z,0.00
2023-04-16T02:32:26.829Z,0.00
2023-04-16T02:33:25.873Z,0.00
2023-04-16T02:34:27.303Z,0.00
2023-04-16T02:35:25.808Z,0.00
2023-04-16T02:36:27.263Z,0.00
2023-04-16T02:37:25.788Z,0.00
2023-04-16T02:38:26.609Z,0.00
2023-04-16T02:39:25.794Z,0.00
2023-04-16T02:40:27.232Z,0.00
2023-04-16T02:41:25.764Z,0.00
2023-04-16T02:42:26.702Z,0.00
2023-04-16T02:43:26.312Z,0.00
2023-04-16T02:44:26.684Z,0.00
2023-04-16T02:45:25.703Z,0.00
2023-04-16T02:46:25.788Z,0.00
2023-04-16T02:47:25.730Z,0.00
2023-04-16T02:48:26.152Z,0.00
2023-04-16T02:49:26.633Z,0.00
2023-04-16T02:50:26.629Z,0.00
2023-04-16T02:51:25.649Z,0.00
2023-04-16T02:52:25.833Z,0.00
2023-04-16T02:53:25.630Z,0.00
2023-04-16T02:54:26.577Z,0.00
2023-04-16T02:55:25.625Z,0.00
2023-04-16T02:56:25.678Z,0.00
2023-04-16T02:57:25.573Z,0.00
2023-04-16T02:58:25.645Z,0.00
2023-04-16T02:59:25.550Z,0.00
2023-04-16T03:00:26.345Z,0.00
2023-04-16T03:01:25.573Z,0.00
2023-04-16T03:02:26.182Z,0.00
2023-04-16T03:03:25.561Z,0.00
2023-04-16T03:04:27.024Z,0.00
2023-04-16T03:05:25.495Z,0.00
2023-04-16T03:06:27.422Z,0.00
2023-04-16T03:07:25.454Z,0.00
2023-04-16T03:08:25.488Z,0.00
2023-04-16T03:09:25.432Z,0.00
2023-04-16T03:10:26.880Z,0.00
2023-04-16T03:11:25.430Z,0.00
2023-04-16T03:12:26.860Z,0.00
2023-04-16T03:13:25.405Z,0.00
2023-04-16T03:14:25.838Z,0.00
2023-04-16T03:15:25.401Z,0.00
2023-04-16T03:16:26.338Z,0.00
2023-04-16T03:17:25.383Z,0.00
2023-04-16T03:18:25.350Z,0.00
2023-04-16T03:19:25.328Z,0.00
2023-04-16T03:20:26.149Z,0.00
2023-04-16T03:21:25.311Z,0.00
2023-04-16T03:22:26.119Z,0.00
2023-04-16T03:23:25.279Z,0.00
2023-04-16T03:24:25.281Z,0.00
2023-04-16T03:25:25.264Z,0.00
2023-04-16T03:26:26.120Z,0.00
2023-04-16T03:27:25.273Z,0.00
2023-04-16T03:28:26.686Z,0.00
2023-04-16T03:29:25.222Z,0.00
2023-04-16T03:30:26.707Z,0.00
2023-04-16T03:31:25.220Z,0.00
2023-04-16T03:32:25.650Z,0.00
2023-04-16T03:33:25.180Z,0.00
2023-04-16T03:34:25.164Z,0.00
2023-04-16T03:35:25.175Z,0.00
2023-04-16T03:36:26.101Z,0.00
2023-04-16T03:37:26.084Z,0.00
2023-04-16T03:38:26.080Z,0.00
2023-04-16T03:39:25.131Z,0.00
2023-04-16T03:40:25.602Z,0.00
2023-04-16T03:41:25.109Z,0.00
2023-04-16T03:42:26.022Z,0.00
2023-04-16T03:43:25.104Z,0.00
2023-04-16T03:44:25.133Z,0.00
2023-04-16T03:45:25.035Z,0.00
2023-04-16T03:46:25.051Z,0.00
2023-04-16T03:47:25.139Z,0.00
2023-04-16T03:48:25.974Z,0.00
2023-04-16T03:49:25.017Z,0.00
2023-04-16T03:50:25.057Z,0.00
2023-04-16T03:51:25.012Z,0.00
2023-04-16T03:52:24.972Z,0.00
2023-04-16T03:53:24.974Z,0.00
2023-04-16T03:54:24.961Z,0.00
2023-04-16T03:55:24.928Z,0.00
2023-04-16T03:56:25.392Z,0.00
2023-04-16T03:57:24.898Z,0.00
2023-04-16T03:58:24.925Z,0.00
2023-04-16T03:59:24.933Z,0.00
2023-04-16T04:00:24.896Z,0.00
2023-04-16T04:01:24.864Z,0.00
2023-04-16T04:02:25.063Z,0.00
2023-04-16T04:03:25.160Z,0.00
2023-04-16T04:04:25.003Z,0.00
2023-04-16T04:05:24.835Z,0.00
2023-04-16T04:06:25.840Z,0.00
2023-04-16T04:07:24.792Z,0.00
2023-04-16T04:08:24.803Z,0.00
2023-04-16T04:09:24.770Z,0.00
2023-04-16T04:10:24.807Z,0.00
2023-04-16T04:11:24.748Z,0.00
2023-04-16T04:12:24.792Z,0.00
2023-04-16T04:13:24.740Z,0.00
2023-04-16T04:14:26.205Z,0.00
2023-04-16T04:15:24.709Z,0.00
2023-04-16T04:16:24.780Z,0.00
2023-04-16T04:17:24.773Z,0.00
2023-04-16T04:18:25.674Z,0.00
2023-04-16T04:19:24.669Z,0.00
2023-04-16T04:20:24.698Z,0.00
2023-04-16T04:21:24.697Z,0.00
2023-04-16T04:22:24.639Z,0.00
2023-04-16T04:23:24.613Z,0.00
2023-04-16T04:24:24.638Z,4.00
2023-04-16T04:25:24.601Z,0.00
2023-04-16T04:26:24.667Z,4.00
2023-04-16T04:27:24.587Z,4.00
2023-04-16T04:28:24.592Z,4.00
2023-04-16T04:29:24.565Z,4.00
2023-04-16T04:30:26.082Z,4.00
2023-04-16T04:31:24.579Z,4.00
2023-04-16T04:32:26.075Z,8.00
2023-04-16T04:33:24.528Z,8.00
2023-04-16T04:34:24.540Z,8.00
2023-04-16T04:35:24.489Z,8.00
2023-04-16T04:36:24.488Z,8.00
2023-04-16T04:37:25.948Z,8.00
2023-04-16T04:38:24.505Z,8.00
2023-04-16T04:39:24.445Z,8.00
2023-04-16T04:40:24.460Z,8.00
2023-04-16T04:41:24.422Z,8.00
2023-04-16T04:42:26.420Z,12.00
2023-04-16T04:43:24.439Z,16.00
2023-04-16T04:44:25.378Z,16.00
2023-04-16T04:45:24.415Z,16.00
2023-04-16T04:46:24.867Z,16.00
2023-04-16T04:47:24.369Z,20.00
2023-04-16T04:48:25.342Z,24.00
2023-04-16T04:49:24.338Z,24.00
2023-04-16T04:50:25.165Z,24.00
2023-04-16T04:51:24.305Z,24.00
2023-04-16T04:52:24.873Z,28.00
2023-04-16T04:53:24.350Z,32.00
2023-04-16T04:54:25.756Z,32.00
2023-04-16T04:55:24.324Z,36.00
2023-04-16T04:56:24.316Z,32.00
2023-04-16T04:57:24.266Z,36.00
2023-04-16T04:58:25.198Z,36.00
2023-04-16T04:59:24.703Z,36.00
2023-04-16T05:00:25.198Z,36.00
2023-04-16T05:01:24.240Z,36.00
2023-04-16T05:02:24.511Z,40.00
2023-04-16T05:03:24.318Z,44.00
2023-04-16T05:04:25.652Z,44.00
2023-04-16T05:05:24.177Z,40.00
2023-04-16T05:06:24.225Z,52.00
2023-04-16T05:07:24.146Z,52.00
2023-04-16T05:08:24.155Z,52.00
2023-04-16T05:09:24.913Z,56.00
2023-04-16T05:10:25.585Z,56.00
2023-04-16T05:11:24.118Z,56.00
2023-04-16T05:12:24.375Z,60.00
2023-04-16T05:13:24.913Z,64.00
2023-04-16T05:14:26.038Z,64.00
2023-04-16T05:15:24.101Z,60.00
2023-04-16T05:16:24.684Z,60.00
2023-04-16T05:17:24.231Z,64.00
2023-04-16T05:18:24.880Z,60.00
2023-04-16T05:19:24.024Z,64.00
2023-04-16T05:20:24.009Z,64.00
2023-04-16T05:21:23.992Z,72.00
2023-04-16T05:22:24.166Z,72.00
2023-04-16T05:23:23.997Z,68.00
2023-04-16T05:24:24.076Z,76.00
2023-04-16T05:25:23.951Z,80.00
2023-04-16T05:26:23.976Z,84.00
2023-04-16T05:27:23.981Z,84.00
2023-04-16T05:28:23.931Z,96.00
2023-04-16T05:29:23.903Z,104.00
2023-04-16T05:30:23.884Z,116.00
2023-04-16T05:31:24.000Z,104.00
2023-04-16T05:32:24.344Z,116.00
2023-04-16T05:33:23.853Z,96.00
2023-04-16T05:34:23.842Z,100.00
2023-04-16T05:35:23.840Z,104.00
2023-04-16T05:36:23.817Z,100.00
2023-04-16T05:37:23.825Z,88.00
2023-04-16T05:38:23.834Z,100.00
2023-04-16T05:39:23.781Z,100.00
2023-04-16T05:40:23.823Z,112.00
2023-04-16T05:41:23.773Z,120.00
2023-04-16T05:42:23.771Z,136.00
2023-04-16T05:43:23.738Z,144.00
2023-04-16T05:44:25.245Z,180.00
2023-04-16T05:45:24.055Z,160.00
2023-04-16T05:46:23.840Z,144.00
2023-04-16T05:47:23.723Z,156.00
2023-04-16T05:48:24.173Z,132.00
2023-04-16T05:49:23.695Z,136.00
2023-04-16T05:50:23.713Z,132.00
2023-04-16T05:51:23.656Z,140.00
2023-04-16T05:52:23.673Z,140.00
2023-04-16T05:53:23.671Z,140.00
2023-04-16T05:54:23.707Z,148.00
2023-04-16T05:55:23.617Z,144.00
2023-04-16T05:56:23.590Z,124.00
2023-04-16T05:57:23.611Z,128.00
2023-04-16T05:58:23.659Z,132.00
2023-04-16T05:59:23.570Z,132.00
2023-04-16T06:00:23.573Z,136.00
2023-04-16T06:01:23.545Z,128.00
2023-04-16T06:02:23.667Z,128.00
2023-04-16T06:03:23.592Z,156.00
2023-04-16T06:04:23.612Z,144.00
2023-04-16T06:05:23.545Z,124.00
2023-04-16T06:06:23.714Z,128.00
2023-04-16T06:07:23.536Z,152.00
2023-04-16T06:08:23.726Z,156.00
2023-04-16T06:09:23.446Z,152.00
2023-04-16T06:10:23.710Z,160.00
2023-04-16T06:11:23.426Z,148.00
2023-04-16T06:12:23.633Z,152.00
2023-04-16T06:13:23.427Z,168.00
2023-04-16T06:14:23.414Z,160.00
2023-04-16T06:15:23.398Z,156.00
2023-04-16T06:16:23.733Z,160.00
2023-04-16T06:17:23.483Z,152.00
2023-04-16T06:18:23.380Z,164.00
2023-04-16T06:19:23.364Z,188.00
2023-04-16T06:20:24.828Z,148.00
2023-04-16T06:21:23.331Z,176.00
2023-04-16T06:22:23.336Z,192.00
2023-04-16T06:23:23.324Z,188.00
2023-04-16T06:24:23.303Z,240.00
2023-04-16T06:25:23.328Z,236.00
2023-04-16T06:26:23.278Z,236.00
2023-04-16T06:27:23.266Z,260.00
2023-04-16T06:28:23.254Z,228.00
2023-04-16T06:29:33.507Z,212.00
2023-04-16T06:30:25.207Z,292.00
2023-04-16T06:31:23.250Z,312.00
2023-04-16T06:32:23.256Z,312.00
2023-04-16T06:33:23.223Z,300.00
2023-04-16T06:34:23.177Z,268.00
2023-04-16T06:35:23.178Z,288.00
2023-04-16T06:36:23.149Z,304.00
2023-04-16T06:37:23.151Z,292.00
2023-04-16T06:38:23.186Z,256.00
2023-04-16T06:39:23.135Z,256.00
2023-04-16T06:40:23.120Z,280.00
2023-04-16T06:41:23.106Z,264.00
2023-04-16T06:42:23.254Z,264.00
2023-04-16T06:43:24.074Z,348.00
2023-04-16T06:44:23.100Z,520.00
2023-04-16T06:45:23.046Z,696.00
2023-04-16T06:46:24.044Z,784.00
2023-04-16T06:47:23.083Z,984.00
2023-04-16T06:48:23.043Z,1128.00
2023-04-16T06:49:23.153Z,1120.00
2023-04-16T06:50:23.022Z,1208.00
2023-04-16T06:51:24.058Z,1200.00
2023-04-16T06:52:22.970Z,1028.00
2023-04-16T06:53:22.987Z,884.00
2023-04-16T06:54:22.974Z,852.00
2023-04-16T06:55:22.978Z,836.00
2023-04-16T06:56:23.020Z,820.00
2023-04-16T06:57:22.980Z,808.00
2023-04-16T06:58:22.900Z,804.00
2023-04-16T06:59:22.922Z,792.00
2023-04-16T07:00:22.921Z,776.00
2023-04-16T07:01:23.006Z,784.00
2023-04-16T07:02:22.968Z,804.00
2023-04-16T07:03:23.986Z,848.00
2023-04-16T07:04:22.870Z,832.00
2023-04-16T07:05:22.866Z,840.00
2023-04-16T07:06:22.839Z,876.00
2023-04-16T07:07:22.826Z,936.00
2023-04-16T07:08:22.817Z,940.00
2023-04-16T07:09:22.812Z,968.00
2023-04-16T07:10:23.634Z,904.00
2023-04-16T07:11:22.784Z,928.00
2023-04-16T07:12:23.079Z,972.00
2023-04-16T07:13:22.748Z,936.00
2023-04-16T07:14:22.766Z,916.00
2023-04-16T07:15:22.714Z,1012.00
2023-04-16T07:16:22.791Z,968.00
2023-04-16T07:17:23.159Z,1068.00
2023-04-16T07:18:22.760Z,1344.00
2023-04-16T07:19:22.687Z,1500.00
2023-04-16T07:20:22.678Z,1368.00
2023-04-16T07:21:22.676Z,1640.00
2023-04-16T07:22:22.638Z,1748.00
2023-04-16T07:23:22.704Z,1612.00
2023-04-16T07:24:22.647Z,1672.00
2023-04-16T07:25:22.646Z,1516.00
2023-04-16T07:26:22.612Z,1532.00
2023-04-16T07:27:23.579Z,1540.00
2023-04-16T07:28:22.641Z,1676.00
2023-04-16T07:29:22.621Z,1720.00
2023-04-16T07:30:22.561Z,1600.00
2023-04-16T07:31:22.572Z,1584.00
2023-04-16T07:32:23.096Z,1520.00
2023-04-16T07:33:22.537Z,1716.00
2023-04-16T07:34:22.551Z,1976.00
2023-04-16T07:35:22.561Z,1952.00
2023-04-16T07:36:22.486Z,2152.00
2023-04-16T07:37:22.494Z,2452.00
2023-04-16T07:38:23.437Z,2140.00
2023-04-16T07:39:22.488Z,1704.00
2023-04-16T07:40:22.688Z,1404.00
2023-04-16T07:41:22.464Z,1276.00
2023-04-16T07:42:22.425Z,1340.00
2023-04-16T07:43:22.443Z,1584.00
2023-04-16T07:44:22.408Z,1928.00
2023-04-16T07:45:22.425Z,2060.00
2023-04-16T07:46:22.448Z,1844.00
2023-04-16T07:47:22.422Z,1508.00
2023-04-16T07:48:22.409Z,1340.00
2023-04-16T07:49:22.374Z,1404.00
2023-04-16T07:50:22.349Z,1404.00
2023-04-16T07:51:22.352Z,1448.00
2023-04-16T07:52:22.315Z,1404.00
2023-04-16T07:53:23.366Z,1200.00
2023-04-16T07:54:22.294Z,1364.00
2023-04-16T07:55:22.297Z,1396.00
2023-04-16T07:56:22.259Z,1456.00
2023-04-16T07:57:22.267Z,1392.00
2023-04-16T07:58:22.275Z,1364.00
2023-04-16T07:59:23.978Z,1604.00
2023-04-16T08:00:22.324Z,2116.00
2023-04-16T08:01:22.226Z,2668.00
2023-04-16T08:02:22.294Z,3096.00
2023-04-16T08:03:22.308Z,3320.00
2023-04-16T08:04:22.407Z,3164.00
2023-04-16T08:05:22.287Z,2856.00
2023-04-16T08:06:22.150Z,2948.00
2023-04-16T08:07:22.157Z,3216.00
2023-04-16T08:08:22.146Z,3352.00
2023-04-16T08:09:23.133Z,3032.00
2023-04-16T08:10:22.157Z,2636.00
2023-04-16T08:11:22.320Z,2448.00
2023-04-16T08:12:22.092Z,2428.00
2023-04-16T08:13:22.099Z,2544.00
2023-04-16T08:14:22.111Z,2804.00
2023-04-16T08:15:22.084Z,2980.00
2023-04-16T08:16:22.139Z,2800.00
2023-04-16T08:17:22.364Z,2284.00
2023-04-16T08:18:22.026Z,2068.00
2023-04-16T08:19:22.056Z,2264.00
2023-04-16T08:20:22.024Z,2308.00
2023-04-16T08:21:22.063Z,2632.00
2023-04-16T08:22:22.002Z,3136.00
2023-04-16T08:23:21.986Z,3392.00
2023-04-16T08:24:22.967Z,3536.00
2023-04-16T08:25:21.944Z,3380.00
2023-04-16T08:26:21.952Z,2916.00
2023-04-16T08:27:21.998Z,2668.00
2023-04-16T08:28:21.949Z,2896.00
2023-04-16T08:29:21.971Z,3192.00
2023-04-16T08:30:22.064Z,3280.00
2023-04-16T08:31:21.959Z,3188.00
2023-04-16T08:32:21.930Z,3160.00
2023-04-16T08:33:21.896Z,3180.00
2023-04-16T08:34:22.884Z,3248.00
2023-04-16T08:35:21.858Z,3180.00
2023-04-16T08:36:21.856Z,2844.00
2023-04-16T08:37:21.840Z,2548.00
2023-04-16T08:38:22.780Z,2812.00
2023-04-16T08:39:21.816Z,3168.00
2023-04-16T08:40:21.845Z,3512.00
2023-04-16T08:41:21.820Z,3480.00
2023-04-16T08:42:21.781Z,3492.00
2023-04-16T08:43:21.759Z,3732.00
2023-04-16T08:44:21.773Z,3940.00
2023-04-16T08:45:21.764Z,3964.00
2023-04-16T08:46:21.769Z,4504.00
2023-04-16T08:47:21.801Z,4648.00
2023-04-16T08:48:21.692Z,4692.00
2023-04-16T08:49:21.709Z,4900.00
2023-04-16T08:50:22.162Z,5116.00
2023-04-16T08:51:21.669Z,5104.00
2023-04-16T08:52:21.714Z,4992.00
2023-04-16T08:53:21.665Z,4940.00
2023-04-16T08:54:21.632Z,4888.00
2023-04-16T08:55:21.649Z,4780.00
2023-04-16T08:56:21.615Z,4784.00
2023-04-16T08:57:21.611Z,5032.00
2023-04-16T08:58:22.597Z,5320.00
2023-04-16T08:59:21.633Z,5464.00
2023-04-16T09:00:21.574Z,5072.00
2023-04-16T09:01:21.600Z,4864.00
2023-04-16T09:02:21.711Z,5040.00
2023-04-16T09:03:21.812Z,5124.00
2023-04-16T09:04:21.585Z,5216.00
2023-04-16T09:05:21.520Z,5424.00
2023-04-16T09:06:22.498Z,5336.00
2023-04-16T09:07:21.482Z,4888.00
2023-04-16T09:08:21.507Z,4628.00
2023-04-16T09:09:21.459Z,4484.00
2023-04-16T09:10:22.438Z,4372.00
2023-04-16T09:11:21.455Z,4644.00
2023-04-16T09:12:21.432Z,4504.00
2023-04-16T09:13:21.441Z,3856.00
2023-04-16T09:14:22.371Z,3540.00
2023-04-16T09:15:21.624Z,3832.00
2023-04-16T09:16:21.486Z,3932.00
2023-04-16T09:17:21.651Z,4216.00
2023-04-16T09:18:21.499Z,4488.00
2023-04-16T09:19:21.379Z,4732.00
2023-04-16T09:20:21.443Z,4832.00
2023-04-16T09:21:23.760Z,5060.00
2023-04-16T09:22:21.319Z,5180.00
2023-04-16T09:23:21.894Z,5188.00
2023-04-16T09:24:21.363Z,5180.00
2023-04-16T09:25:21.312Z,5120.00
2023-04-16T09:26:22.036Z,5320.00
2023-04-16T09:27:23.270Z,5496.00
2023-04-16T09:28:21.284Z,5684.00
2023-04-16T09:29:21.274Z,5916.00
2023-04-16T09:30:22.219Z,5820.00
2023-04-16T09:31:22.271Z,4668.00
2023-04-16T09:32:22.222Z,4168.00
2023-04-16T09:33:21.732Z,4600.00
2023-04-16T09:34:22.456Z,4872.00
2023-04-16T09:35:21.313Z,4424.00
2023-04-16T09:36:21.466Z,4012.00
2023-04-16T09:37:22.622Z,4024.00
2023-04-16T09:38:22.115Z,3504.00
2023-04-16T09:39:21.529Z,3684.00
2023-04-16T09:40:22.649Z,4368.00
2023-04-16T09:41:21.136Z,4680.00
2023-04-16T09:42:22.058Z,4800.00
2023-04-16T09:43:21.120Z,5264.00
2023-04-16T09:44:21.138Z,5560.00
2023-04-16T09:45:21.158Z,5156.00
2023-04-16T09:46:21.216Z,4952.00
2023-04-16T09:47:21.112Z,4812.00
2023-04-16T09:48:21.192Z,4660.00
2023-04-16T09:49:21.040Z,5264.00
2023-04-16T09:50:21.096Z,6232.00
2023-04-16T09:51:21.124Z,6456.00
2023-04-16T09:52:22.012Z,5720.00
2023-04-16T09:53:20.998Z,5084.00
2023-04-16T09:54:21.036Z,5392.00
2023-04-16T09:55:21.063Z,6052.00
2023-04-16T09:56:21.151Z,5732.00
2023-04-16T09:57:20.978Z,5192.00
2023-04-16T09:58:20.946Z,5880.00
2023-04-16T09:59:22.926Z,6752.00
2023-04-16T10:00:21.722Z,6940.00
2023-04-16T10:01:21.029Z,6996.00
2023-04-16T10:02:21.896Z,6408.00
2023-04-16T10:03:21.055Z,5856.00
2023-04-16T10:04:21.175Z,6084.00
2023-04-16T10:05:21.764Z,6228.00
2023-04-16T10:06:20.873Z,6480.00
2023-04-16T10:07:21.290Z,6564.00
2023-04-16T10:08:20.866Z,6252.00
2023-04-16T10:09:22.015Z,6828.00
2023-04-16T10:10:22.257Z,7144.00
2023-04-16T10:11:21.713Z,7316.00
2023-04-16T10:12:20.827Z,7200.00
2023-04-16T10:13:20.847Z,7400.00
2023-04-16T10:14:21.106Z,7844.00
2023-04-16T10:15:22.215Z,7984.00
2023-04-16T10:16:20.793Z,8044.00
2023-04-16T10:17:20.867Z,8032.00
2023-04-16T10:18:20.829Z,7804.00
2023-04-16T10:19:20.814Z,7700.00
2023-04-16T10:20:22.142Z,7736.00
2023-04-16T10:21:21.692Z,7780.00
2023-04-16T10:22:20.677Z,8020.00
2023-04-16T10:23:22.129Z,7892.00
2023-04-16T10:24:20.647Z,7832.00
2023-04-16T10:25:20.772Z,7672.00
2023-04-16T10:26:20.761Z,7064.00
2023-04-16T10:27:21.409Z,6668.00
2023-04-16T10:28:21.072Z,7032.00
2023-04-16T10:29:22.112Z,7168.00
2023-04-16T10:30:21.401Z,7268.00
2023-04-16T10:31:20.617Z,7564.00
2023-04-16T10:32:22.068Z,7796.00
2023-04-16T10:33:20.564Z,7496.00
2023-04-16T10:34:21.676Z,6736.00
2023-04-16T10:35:21.318Z,6728.00
2023-04-16T10:36:20.524Z,7208.00
2023-04-16T10:37:21.337Z,7900.00
2023-04-16T10:38:20.491Z,8028.00
2023-04-16T10:39:20.556Z,7428.00
2023-04-16T10:40:21.922Z,7412.00
2023-04-16T10:41:20.609Z,7656.00
2023-04-16T10:42:20.440Z,7152.00
2023-04-16T10:43:20.737Z,6828.00
2023-04-16T10:44:20.439Z,6388.00
2023-04-16T10:45:20.586Z,6600.00
2023-04-16T10:46:20.507Z,6876.00
2023-04-16T10:47:20.413Z,6892.00
2023-04-16T10:48:20.386Z,6788.00
2023-04-16T10:49:20.383Z,6744.00
2023-04-16T10:50:20.357Z,7188.00
2023-04-16T10:51:20.381Z,7364.00
2023-04-16T10:52:20.366Z,7120.00
2023-04-16T10:53:21.788Z,6668.00
2023-04-16T10:54:20.439Z,6536.00
2023-04-16T10:55:20.316Z,5420.00
2023-04-16T10:56:20.316Z,4296.00
2023-04-16T10:57:21.077Z,3564.00
2023-04-16T10:58:20.726Z,3532.00
2023-04-16T10:59:20.579Z,3816.00
2023-04-16T11:00:21.216Z,3672.00
2023-04-16T11:01:20.233Z,4124.00
2023-04-16T11:02:20.486Z,4796.00
2023-04-16T11:03:20.334Z,5020.00
2023-04-16T11:04:20.431Z,5452.00
2023-04-16T11:05:20.177Z,6084.00
2023-04-16T11:06:20.315Z,7224.00
2023-04-16T11:07:20.188Z,7288.00
2023-04-16T11:08:20.334Z,8616.00
2023-04-16T11:09:20.148Z,8772.00
2023-04-16T11:10:21.081Z,9984.00
2023-04-16T11:11:21.614Z,9820.00
2023-04-16T11:12:20.509Z,7408.00
2023-04-16T11:13:20.913Z,4780.00
2023-04-16T11:14:20.298Z,3240.00
2023-04-16T11:15:21.536Z,2588.00
2023-04-16T11:16:21.583Z,2900.00
2023-04-16T11:17:21.434Z,3724.00
2023-04-16T11:18:20.850Z,4556.00
2023-04-16T11:19:20.164Z,4156.00
2023-04-16T11:20:21.575Z,4100.00
2023-04-16T11:21:21.545Z,4036.00
2023-04-16T11:22:20.613Z,3832.00
2023-04-16T11:23:20.110Z,4352.00
2023-04-16T11:24:19.983Z,5048.00
2023-04-16T11:25:19.983Z,5556.00
2023-04-16T11:26:20.051Z,6156.00
2023-04-16T11:27:20.006Z,5736.00
2023-04-16T11:28:19.970Z,5944.00
2023-04-16T11:29:20.034Z,5704.00
2023-04-16T11:30:20.021Z,5156.00
2023-04-16T11:31:20.223Z,4544.00
2023-04-16T11:32:19.909Z,4100.00
2023-04-16T11:33:20.133Z,4076.00
2023-04-16T11:34:20.104Z,4792.00
2023-04-16T11:35:19.868Z,5232.00
2023-04-16T11:36:21.842Z,6340.00
2023-04-16T11:37:19.873Z,6972.00
2023-04-16T11:38:19.857Z,6976.00
2023-04-16T11:39:19.819Z,6800.00
2023-04-16T11:40:20.113Z,6912.00
2023-04-16T11:41:19.816Z,7224.00
2023-04-16T11:42:21.361Z,7916.00
2023-04-16T11:43:19.805Z,8196.00
2023-04-16T11:44:19.756Z,8364.00
2023-04-16T11:45:20.461Z,8832.00
2023-04-16T11:46:27.466Z,8948.00
2023-04-16T11:47:20.945Z,9040.00
2023-04-16T11:48:19.805Z,9256.00
2023-04-16T11:49:19.704Z,8920.00
2023-04-16T11:50:19.706Z,7316.00
2023-04-16T11:51:19.657Z,6808.00
2023-04-16T11:52:19.726Z,7420.00
2023-04-16T11:53:19.675Z,7184.00
2023-04-16T11:54:19.652Z,7088.00
2023-04-16T11:55:19.656Z,8268.00
2023-04-16T11:56:21.074Z,9964.00
2023-04-16T11:57:19.623Z,10900.00
2023-04-16T11:58:19.650Z,11736.00
2023-04-16T11:59:19.792Z,11368.00
2023-04-16T12:00:24.009Z,9520.00
2023-04-16T12:01:21.456Z,8192.00
2023-04-16T12:02:20.690Z,7212.00
2023-04-16T12:03:19.744Z,5940.00
2023-04-16T12:04:19.703Z,5808.00
2023-04-16T12:05:19.599Z,6704.00
2023-04-16T12:06:20.862Z,7032.00
2023-04-16T12:07:19.636Z,6156.00
2023-04-16T12:08:19.832Z,6136.00
2023-04-16T12:09:19.479Z,7224.00
2023-04-16T12:10:20.935Z,8420.00
2023-04-16T12:11:19.468Z,8212.00
2023-04-16T12:12:19.488Z,6652.00
2023-04-16T12:13:19.444Z,5948.00
2023-04-16T12:14:19.403Z,7136.00
2023-04-16T12:15:20.395Z,10044.00
2023-04-16T12:16:19.456Z,11688.00
2023-04-16T12:17:20.808Z,9692.00
2023-04-16T12:18:19.374Z,8040.00
2023-04-16T12:19:19.377Z,9236.00
2023-04-16T12:20:19.466Z,10916.00
2023-04-16T12:21:19.379Z,9928.00
2023-04-16T12:22:19.352Z,8524.00
2023-04-16T12:23:19.307Z,8404.00
2023-04-16T12:24:19.318Z,7268.00
2023-04-16T12:25:19.337Z,6100.00
2023-04-16T12:26:19.299Z,6608.00
2023-04-16T12:27:19.273Z,6760.00
2023-04-16T12:28:19.274Z,6572.00
2023-04-16T12:29:19.264Z,5896.00
2023-04-16T12:30:19.389Z,5544.00
2023-04-16T12:31:19.299Z,4988.00
2023-04-16T12:32:19.343Z,5364.00
2023-04-16T12:33:20.663Z,6168.00
2023-04-16T12:34:19.239Z,6048.00
2023-04-16T12:35:20.638Z,5300.00
2023-04-16T12:36:19.175Z,5660.00
2023-04-16T12:37:20.618Z,6616.00